createdAt,value
2019-01-26T03:31:59.459Z,14.00
2019-01-26T03:34:30.195Z,11.63
2019-01-26T03:36:59.346Z,12.00
2019-01-26T03:39:28.687Z,11.63
2019-01-26T03:41:58.166Z,11.37
2019-01-26T03:44:27.262Z,12.70
2019-01-26T03:46:56.371Z,10.60
2019-01-26T03:49:26.059Z,11.00
2019-01-26T03:51:55.159Z,11.43
2019-01-26T03:54:24.253Z,12.20
2019-01-26T03:56:53.358Z,12.67
2019-01-26T03:59:22.478Z,12.23
2019-01-26T04:01:51.589Z,10.53
2019-01-26T04:04:20.678Z,12.37
2019-01-26T04:06:49.786Z,11.00
2019-01-26T04:09:18.907Z,9.27
2019-01-26T04:11:48.006Z,10.83
2019-01-26T04:14:18.893Z,10.20
2019-01-26T04:16:47.915Z,11.07
2019-01-26T04:19:17.486Z,12.30
2019-01-26T04:21:46.587Z,10.70
2019-01-26T04:24:15.699Z,11.13
2019-01-26T04:26:44.790Z,10.23
2019-01-26T04:29:13.946Z,10.83
2019-01-26T04:31:43.430Z,17.13
2019-01-26T04:34:12.542Z,12.07
2019-01-26T04:36:41.657Z,10.40
2019-01-26T04:39:10.748Z,10.20
2019-01-26T04:41:39.858Z,9.57
2019-01-26T04:44:08.939Z,8.17
2019-01-26T04:46:38.037Z,11.00
2019-01-26T04:49:07.145Z,7.47
2019-01-26T04:51:37.206Z,9.10
2019-01-26T04:54:06.896Z,11.73
2019-01-26T04:56:35.983Z,9.00
2019-01-26T04:59:05.099Z,11.40
2019-01-26T05:01:34.756Z,8.57
2019-01-26T05:04:04.475Z,8.87
2019-01-26T05:06:34.192Z,10.13
2019-01-26T05:09:06.726Z,10.97
2019-01-26T05:11:36.013Z,9.10
2019-01-26T05:14:05.099Z,10.50
2019-01-26T05:16:34.211Z,8.63
2019-01-26T05:19:04.151Z,10.53
2019-01-26T05:21:33.250Z,10.33
2019-01-26T05:24:02.426Z,8.53
2019-01-26T05:26:31.526Z,9.27
2019-01-26T05:29:03.115Z,11.37
2019-01-26T05:31:32.218Z,12.33
2019-01-26T05:34:02.646Z,10.37
2019-01-26T05:36:31.762Z,9.77
2019-01-26T05:39:01.646Z,11.23
2019-01-26T05:41:31.811Z,7.10
2019-01-26T05:44:01.379Z,9.93
2019-01-26T05:46:31.043Z,9.00
2019-01-26T05:49:02.668Z,9.40
2019-01-26T05:51:31.764Z,16.60
2019-01-26T05:54:01.662Z,6.97
2019-01-26T05:56:30.770Z,10.13
2019-01-26T05:58:59.875Z,5.60
2019-01-26T06:01:32.414Z,5.60
2019-01-26T06:04:02.741Z,6.10
2019-01-26T06:06:31.850Z,5.87
2019-01-26T06:09:02.694Z,6.20
2019-01-26T06:11:32.822Z,6.63
2019-01-26T06:14:03.134Z,5.90
2019-01-26T06:16:32.463Z,6.20
2019-01-26T06:19:03.791Z,7.30
2019-01-26T06:21:32.886Z,6.63
2019-01-26T06:24:02.485Z,7.83
2019-01-26T06:26:31.590Z,6.63
2019-01-26T06:29:00.683Z,5.90
2019-01-26T06:31:30.286Z,5.70
2019-01-26T06:33:59.394Z,5.67
2019-01-26T06:36:28.490Z,6.63
2019-01-26T06:38:57.582Z,5.73
2019-01-26T06:41:27.231Z,5.20
2019-01-26T06:43:56.890Z,5.10
2019-01-26T06:46:25.990Z,7.17
2019-01-26T06:48:57.130Z,5.10
2019-01-26T06:51:26.226Z,5.13
2019-01-26T06:53:55.802Z,5.30
2019-01-26T06:56:24.898Z,5.93
2019-01-26T06:58:54.006Z,5.73
2019-01-26T07:01:23.094Z,4.90
2019-01-26T07:03:52.187Z,5.00
2019-01-26T07:06:22.930Z,4.73
2019-01-26T07:08:52.038Z,4.63
2019-01-26T07:11:21.142Z,7.70
2019-01-26T07:13:51.195Z,6.23
2019-01-26T07:16:21.682Z,3.73
2019-01-26T07:18:50.781Z,3.70
2019-01-26T07:21:19.883Z,6.10
2019-01-26T07:23:49.454Z,7.90
2019-01-26T07:26:18.611Z,5.13
2019-01-26T07:28:47.694Z,6.53
2019-01-26T07:31:17.778Z,5.87
2019-01-26T07:33:46.864Z,4.87
2019-01-26T07:36:15.954Z,4.03
2019-01-26T07:38:45.226Z,3.40
2019-01-26T07:41:14.763Z,4.10
2019-01-26T07:43:44.437Z,3.70
2019-01-26T07:46:13.542Z,3.70
2019-01-26T07:48:42.630Z,3.20
2019-01-26T07:51:12.302Z,3.07
2019-01-26T07:53:41.390Z,3.80
2019-01-26T07:56:10.488Z,3.20
2019-01-26T07:58:40.146Z,3.67
2019-01-26T08:01:09.253Z,3.33
2019-01-26T08:03:38.326Z,3.70
2019-01-26T08:06:07.434Z,3.27
2019-01-26T08:08:37.094Z,3.23
2019-01-26T08:11:06.210Z,2.83
2019-01-26T08:13:35.298Z,3.30
2019-01-26T08:16:04.690Z,2.60
2019-01-26T08:18:34.922Z,2.90
2019-01-26T08:21:04.050Z,3.07
2019-01-26T08:23:33.160Z,3.50
2019-01-26T08:26:03.278Z,4.23
2019-01-26T08:28:32.399Z,3.60
2019-01-26T08:31:01.486Z,3.67
2019-01-26T08:33:30.738Z,3.20
2019-01-26T08:35:59.872Z,3.20
2019-01-26T08:38:30.698Z,3.90
2019-01-26T08:40:59.827Z,3.00
2019-01-26T08:43:30.322Z,5.50
2019-01-26T08:45:59.423Z,3.13
2019-01-26T08:48:31.303Z,4.90
2019-01-26T08:51:00.369Z,3.47
2019-01-26T08:53:31.170Z,5.77
2019-01-26T08:56:00.274Z,3.40
2019-01-26T08:58:29.718Z,3.40
2019-01-26T09:00:58.833Z,5.17
2019-01-26T09:03:38.718Z,4.70
2019-01-26T09:06:09.462Z,7.00
2019-01-26T09:08:38.550Z,5.57
2019-01-26T09:11:07.666Z,3.23
2019-01-26T09:13:37.328Z,3.27
2019-01-26T09:16:06.422Z,2.97
2019-01-26T09:18:38.907Z,3.43
2019-01-26T09:21:07.255Z,3.63
2019-01-26T09:23:36.384Z,3.70
2019-01-26T09:26:05.475Z,3.50
2019-01-26T09:28:35.202Z,3.77
2019-01-26T09:31:05.463Z,3.30
2019-01-26T09:33:34.538Z,3.10
2019-01-26T09:36:04.120Z,3.40
2019-01-26T09:38:33.330Z,3.00
2019-01-26T09:41:03.022Z,3.40
2019-01-26T09:43:32.110Z,4.07
2019-01-26T09:46:02.714Z,3.90
2019-01-26T09:48:32.498Z,4.23
2019-01-26T09:51:04.284Z,3.00
2019-01-26T09:53:33.402Z,3.47
2019-01-26T09:56:03.226Z,4.10
2019-01-26T09:58:32.319Z,4.13
2019-01-26T10:01:02.134Z,3.57
2019-01-26T10:03:31.276Z,3.17
2019-01-26T10:06:19.795Z,3.10
2019-01-26T10:08:48.938Z,3.33
2019-01-26T10:11:18.590Z,3.67
2019-01-26T10:13:48.186Z,3.57
2019-01-26T10:16:17.798Z,4.40
2019-01-26T10:18:53.339Z,3.40
2019-01-26T10:21:17.734Z,3.87
2019-01-26T10:23:46.850Z,5.47
2019-01-26T10:26:15.943Z,4.30
2019-01-26T10:28:45.646Z,4.90
2019-01-26T10:31:15.405Z,3.47
2019-01-26T10:33:44.498Z,4.10
2019-01-26T10:36:15.277Z,3.93
2019-01-26T10:38:46.006Z,5.07
2019-01-26T10:41:16.754Z,3.03
2019-01-26T10:43:47.530Z,4.00
2019-01-26T10:46:17.270Z,3.70
2019-01-26T10:48:46.401Z,4.30
2019-01-26T10:51:16.068Z,3.57
2019-01-26T10:53:45.170Z,3.10
2019-01-26T10:56:14.262Z,3.90
2019-01-26T10:58:43.385Z,4.23
2019-01-26T11:01:12.499Z,3.77
2019-01-26T11:03:41.592Z,3.13
2019-01-26T11:06:11.710Z,4.33
2019-01-26T11:08:40.804Z,7.73
2019-01-26T11:11:09.926Z,4.87
2019-01-26T11:13:39.038Z,4.93
2019-01-26T11:16:08.173Z,2.93
2019-01-26T11:18:37.266Z,3.43
2019-01-26T11:21:06.598Z,3.43
2019-01-26T11:23:35.718Z,4.37
2019-01-26T11:26:05.114Z,5.10
2019-01-26T11:28:34.246Z,5.80
2019-01-26T11:31:03.680Z,3.80
2019-01-26T11:33:33.138Z,3.40
2019-01-26T11:36:02.839Z,3.90
2019-01-26T11:38:31.926Z,3.90
2019-01-26T11:41:02.582Z,3.77
2019-01-26T11:43:31.713Z,3.83
2019-01-26T11:46:05.464Z,3.57
2019-01-26T11:48:36.294Z,3.77
2019-01-26T11:51:07.026Z,3.60
2019-01-26T11:53:36.219Z,4.20
2019-01-26T11:56:09.607Z,4.10
2019-01-26T11:58:38.738Z,3.87
2019-01-26T12:01:12.490Z,7.87
2019-01-26T12:03:49.551Z,19.67
2019-01-26T12:06:29.455Z,3.87
2019-01-26T12:08:58.570Z,4.10
2019-01-26T12:11:27.710Z,3.77
2019-01-26T12:13:56.804Z,3.50
2019-01-26T12:16:27.047Z,4.43
2019-01-26T12:18:57.554Z,4.23
2019-01-26T12:21:26.638Z,6.47
2019-01-26T12:23:56.104Z,5.30
2019-01-26T12:26:25.190Z,3.70
2019-01-26T12:28:54.322Z,3.40
2019-01-26T12:31:23.416Z,4.47
2019-01-26T12:33:53.016Z,3.70
2019-01-26T12:36:22.126Z,3.40
2019-01-26T12:38:51.218Z,3.83
2019-01-26T12:41:20.358Z,3.50
2019-01-26T12:43:50.023Z,3.00
2019-01-26T12:46:19.123Z,4.63
2019-01-26T12:48:48.250Z,3.10
2019-01-26T12:51:17.341Z,3.37
2019-01-26T12:53:46.474Z,3.17
2019-01-26T12:56:15.607Z,2.75
2019-01-26T12:58:44.702Z,3.10
2019-01-26T13:01:13.850Z,2.70
2019-01-26T13:03:42.935Z,2.57
2019-01-26T13:06:12.033Z,2.57
2019-01-26T13:08:41.177Z,2.70
2019-01-26T13:11:13.521Z,2.53
2019-01-26T13:13:42.650Z,3.40
2019-01-26T13:16:13.731Z,6.50
2019-01-26T13:18:43.023Z,4.90
2019-01-26T13:21:12.155Z,5.70
2019-01-26T13:23:41.287Z,5.60
2019-01-26T13:26:10.374Z,3.27
2019-01-26T13:28:39.984Z,3.03
2019-01-26T13:31:09.118Z,2.40
2019-01-26T13:33:38.207Z,4.37
2019-01-26T13:36:07.506Z,2.50
2019-01-26T13:38:37.170Z,2.57
2019-01-26T13:41:06.315Z,2.63
2019-01-26T13:43:35.406Z,4.47
2019-01-26T13:46:05.570Z,6.03
2019-01-26T13:48:34.811Z,4.53
2019-01-26T13:51:03.942Z,6.17
2019-01-26T13:53:33.626Z,2.90
2019-01-26T13:56:03.278Z,4.53
2019-01-26T13:58:32.361Z,2.80
2019-01-26T14:01:01.455Z,3.33
2019-01-26T14:03:30.794Z,5.70
2019-01-26T14:05:59.927Z,4.10
2019-01-26T14:08:30.799Z,4.93
2019-01-26T14:10:59.890Z,3.23
2019-01-26T14:13:30.338Z,4.07
2019-01-26T14:15:59.471Z,4.73
2019-01-26T14:18:28.602Z,4.00
2019-01-26T14:20:57.742Z,4.60
2019-01-26T14:23:26.833Z,3.87
2019-01-26T14:25:55.922Z,3.77
2019-01-26T14:28:25.217Z,4.73
2019-01-26T14:30:55.090Z,4.00
2019-01-26T14:33:24.187Z,5.37
2019-01-26T14:35:53.282Z,5.40
2019-01-26T14:38:22.414Z,6.27
2019-01-26T14:40:51.506Z,6.00
2019-01-26T14:43:20.638Z,6.17
2019-01-26T14:45:50.686Z,7.63
2019-01-26T14:48:19.769Z,7.87
2019-01-26T14:50:49.371Z,9.63
2019-01-26T14:53:18.502Z,10.20
2019-01-26T14:55:47.903Z,6.67
2019-01-26T14:58:16.986Z,8.23
2019-01-26T15:00:46.151Z,9.23
2019-01-26T15:03:15.280Z,7.07
2019-01-26T15:05:44.439Z,9.90
2019-01-26T15:08:13.530Z,7.00
2019-01-26T15:10:43.233Z,6.50
2019-01-26T15:13:12.358Z,6.27
2019-01-26T15:15:42.022Z,6.47
2019-01-26T15:18:11.162Z,11.67
2019-01-26T15:20:40.624Z,7.67
2019-01-26T15:23:09.772Z,11.50
2019-01-26T15:25:38.871Z,28.77
2019-01-26T15:28:08.544Z,22.17
2019-01-26T15:30:39.330Z,27.90
2019-01-26T15:33:08.492Z,12.57
2019-01-26T15:35:37.662Z,25.70
2019-01-26T15:38:06.982Z,21.43
2019-01-26T15:40:36.074Z,24.87
2019-01-26T15:43:05.555Z,28.80
2019-01-26T15:45:37.531Z,10.27
2019-01-26T15:48:07.012Z,6.90
2019-01-26T15:50:36.102Z,11.03
2019-01-26T15:53:05.313Z,16.27
2019-01-26T15:55:34.446Z,13.10
2019-01-26T15:58:05.559Z,11.30
2019-01-26T16:00:37.855Z,11.17
2019-01-26T16:03:07.016Z,14.70
2019-01-26T16:05:36.726Z,9.17
2019-01-26T16:08:06.154Z,9.70
2019-01-26T16:10:35.244Z,8.07
2019-01-26T16:13:04.378Z,7.43
2019-01-26T16:15:35.810Z,8.13
2019-01-26T16:18:07.295Z,8.53
2019-01-26T16:20:36.382Z,8.37
2019-01-26T16:23:09.501Z,8.93
2019-01-26T16:25:36.480Z,10.67
2019-01-26T16:28:05.574Z,6.73
2019-01-26T16:30:34.671Z,9.70
2019-01-26T16:33:03.802Z,8.93
2019-01-26T16:35:32.934Z,10.53
2019-01-26T16:38:03.451Z,9.10
2019-01-26T16:40:34.950Z,10.80
2019-01-26T16:43:04.350Z,8.87
2019-01-26T16:45:37.590Z,10.17
2019-01-26T16:48:09.191Z,6.93
2019-01-26T16:50:38.759Z,7.70
2019-01-26T16:53:07.855Z,7.10
2019-01-26T16:55:36.989Z,10.13
2019-01-26T16:58:06.128Z,9.30
2019-01-26T17:00:37.598Z,13.00
2019-01-26T17:03:07.038Z,9.80
2019-01-26T17:05:36.126Z,10.90
2019-01-26T17:08:05.708Z,11.47
2019-01-26T17:10:35.009Z,10.10
2019-01-26T17:13:04.313Z,11.07
2019-01-26T17:15:33.419Z,11.53
2019-01-26T17:18:02.556Z,10.77
2019-01-26T17:20:37.199Z,12.30
2019-01-26T17:23:07.106Z,11.37
2019-01-26T17:25:36.207Z,11.33
2019-01-26T17:28:05.338Z,10.27
2019-01-26T17:30:37.234Z,10.87
2019-01-26T17:33:07.588Z,10.57
2019-01-26T17:35:37.160Z,8.63
2019-01-26T17:38:06.604Z,10.13
2019-01-26T17:40:35.694Z,9.33
2019-01-26T17:43:05.618Z,8.80
2019-01-26T17:45:34.773Z,9.73
2019-01-26T17:48:04.158Z,11.00
2019-01-26T17:50:34.538Z,12.07
2019-01-26T17:53:04.150Z,11.00
2019-01-26T17:55:33.300Z,18.40
2019-01-26T17:58:03.834Z,22.77
2019-01-26T18:00:36.400Z,15.87
2019-01-26T18:03:05.650Z,30.93
2019-01-26T18:05:34.750Z,24.00
2019-01-26T18:08:04.159Z,14.33
2019-01-26T18:10:33.990Z,18.53
2019-01-26T18:13:03.698Z,37.47
2019-01-26T18:15:32.798Z,23.50
2019-01-26T18:18:02.434Z,9.10
2019-01-26T18:20:31.520Z,7.70
2019-01-26T18:23:02.319Z,7.50
2019-01-26T18:25:38.982Z,7.10
2019-01-26T18:28:08.290Z,7.17
2019-01-26T18:30:39.271Z,7.57
2019-01-26T18:33:08.582Z,7.37
2019-01-26T18:35:37.718Z,7.47
2019-01-26T18:38:07.042Z,7.20
2019-01-26T18:40:36.177Z,6.50
2019-01-26T18:43:05.267Z,7.80
2019-01-26T18:45:34.966Z,8.53
2019-01-26T18:48:04.063Z,7.80
2019-01-26T18:50:38.970Z,8.03
2019-01-26T18:53:08.490Z,7.90
2019-01-26T18:55:37.590Z,7.43
2019-01-26T18:58:06.730Z,7.00
2019-01-26T19:00:39.994Z,7.70
2019-01-26T19:03:36.414Z,6.93
2019-01-26T19:06:05.947Z,7.70
2019-01-26T19:08:35.082Z,6.80
2019-01-26T19:11:05.421Z,6.73
2019-01-26T19:13:34.514Z,6.37
2019-01-26T19:16:04.390Z,6.43
2019-01-26T19:18:33.527Z,7.53
2019-01-26T19:21:03.514Z,7.20
2019-01-26T19:23:32.722Z,7.30
2019-01-26T19:26:02.527Z,6.60
2019-01-26T19:28:31.655Z,7.73
2019-01-26T19:31:01.214Z,6.57
2019-01-26T19:33:31.315Z,6.23
2019-01-26T19:36:00.398Z,6.00
2019-01-26T19:38:29.722Z,6.53
2019-01-26T19:40:59.826Z,6.47
2019-01-26T19:43:29.799Z,7.37
2019-01-26T19:45:59.458Z,6.50
2019-01-26T19:48:28.590Z,7.10
2019-01-26T19:50:57.718Z,6.33
2019-01-26T19:53:27.278Z,6.50
2019-01-26T19:55:56.415Z,5.90
2019-01-26T19:58:25.506Z,6.20
2019-01-26T20:00:54.607Z,6.70
2019-01-26T20:03:24.719Z,5.67
2019-01-26T20:05:54.513Z,6.20
2019-01-26T20:08:23.612Z,6.80
2019-01-26T20:10:52.931Z,6.40
2019-01-26T20:13:22.190Z,7.43
2019-01-26T20:15:51.280Z,7.60
2019-01-26T20:18:20.410Z,6.40
2019-01-26T20:20:50.179Z,5.63
2019-01-26T20:23:19.791Z,5.43
2019-01-26T20:25:49.546Z,5.57
2019-01-26T20:28:18.634Z,5.20
2019-01-26T20:30:48.614Z,5.03
2019-01-26T20:33:17.707Z,5.20
2019-01-26T20:35:46.836Z,5.17
2019-01-26T20:38:15.979Z,5.67
2019-01-26T20:40:45.065Z,5.70
2019-01-26T20:43:14.165Z,4.70
2019-01-26T20:45:43.299Z,5.53
2019-01-26T20:48:12.395Z,5.30
2019-01-26T20:50:41.606Z,4.60
2019-01-26T20:53:10.809Z,4.70
2019-01-26T20:55:39.907Z,5.30
2019-01-26T20:58:09.041Z,4.93
2019-01-26T21:00:38.531Z,4.50
2019-01-26T21:03:07.625Z,4.23
2019-01-26T21:05:36.764Z,5.07
2019-01-26T21:08:05.901Z,3.80
2019-01-26T21:10:35.030Z,4.13
2019-01-26T21:13:04.359Z,3.97
2019-01-26T21:15:34.020Z,3.93
2019-01-26T21:18:04.566Z,3.50
2019-01-26T21:20:35.238Z,3.80
2019-01-26T21:23:04.603Z,4.17
2019-01-26T21:25:33.798Z,3.90
2019-01-26T21:28:02.934Z,4.30
2019-01-26T21:30:32.022Z,5.33
2019-01-26T21:33:01.690Z,3.90
2019-01-26T21:35:30.822Z,4.67
2019-01-26T21:37:59.914Z,4.23
2019-01-26T21:40:30.594Z,4.23
2019-01-26T21:42:59.961Z,4.70
2019-01-26T21:45:29.847Z,5.03
2019-01-26T21:47:58.943Z,5.13
2019-01-26T21:50:29.373Z,5.30
2019-01-26T21:52:58.507Z,4.93
2019-01-26T21:55:27.598Z,4.57
2019-01-26T21:57:58.174Z,4.13
2019-01-26T22:00:29.206Z,4.17
2019-01-26T22:02:58.328Z,4.00
2019-01-26T22:05:27.891Z,4.60
2019-01-26T22:07:57.018Z,4.40
2019-01-26T22:10:27.450Z,3.90
2019-01-26T22:12:56.586Z,3.60
2019-01-26T22:15:26.036Z,4.03
2019-01-26T22:17:55.162Z,3.80
2019-01-26T22:20:25.887Z,3.30
2019-01-26T22:22:54.999Z,3.40
2019-01-26T22:25:24.610Z,3.33
2019-01-26T22:27:55.416Z,3.77
2019-01-26T22:30:26.485Z,3.50
2019-01-26T22:32:56.214Z,3.73
2019-01-26T22:35:25.305Z,4.50
2019-01-26T22:37:55.002Z,3.93
2019-01-26T22:40:26.790Z,4.10
2019-01-26T22:42:55.910Z,4.23
2019-01-26T22:45:25.438Z,4.13
2019-01-26T22:47:54.839Z,4.27
2019-01-26T22:50:26.091Z,4.00
2019-01-26T22:52:55.170Z,3.70
2019-01-26T22:55:24.434Z,4.00
2019-01-26T22:57:53.599Z,4.40
2019-01-26T23:00:47.914Z,4.40
2019-01-26T23:03:18.114Z,4.10
2019-01-26T23:05:50.471Z,4.43
2019-01-26T23:08:28.426Z,4.97
2019-01-26T23:11:03.390Z,4.60
2019-01-26T23:13:33.130Z,5.23
